Time;durP1;ratioP1;P1;durP2;ratioP2;P2;SDS_P1;SDS_P2;PMS_P1;PMS_P2;Temp;Humidity;BMP_temperature;BMP_pressure;BME280_temperature;BME280_humidity;BME280_pressure;Samples;Min_cycle;Max_cycle;Signal;HPM_P1;HPM_P2
2023/05/25 00:02:03;;;;;;;;;;;14.60;84.40;;;;;;5060532;28;20309;-59
2023/05/25 00:04:35;;;;;;;;;;;14.60;74.30;;;;;;5060359;28;19912;-60
2023/05/25 00:07:01;;;;;;;;;;;14.50;90.80;;;;;;5059982;28;19916;-60
2023/05/25 00:09:27;;;;;;;;;;;14.50;74.40;;;;;;5060094;28;19909;-60
2023/05/25 00:11:52;;;;;;;;;;;14.40;91.00;;;;;;5059644;28;19909;-60
2023/05/25 00:14:18;;;;;;;;;;;14.40;83.90;;;;;;5059277;28;19935;-60
2023/05/25 00:16:47;;;;;;;;;;;14.40;87.40;;;;;;5059267;28;19932;-55
2023/05/25 00:19:13;;;;;;;;;;;14.30;80.40;;;;;;5059421;28;20342;-56
2023/05/25 00:21:40;;;;;;;;;;;14.30;82.60;;;;;;5059720;28;19959;-52
2023/05/25 00:24:06;;;;;;;;;;;14.20;86.60;;;;;;5059158;28;20428;-57
2023/05/25 00:26:32;;;;;;;;;;;14.20;86.80;;;;;;5060175;28;19909;-54
2023/05/25 00:28:59;;;;;;;;;;;14.20;91.10;;;;;;5059686;28;19916;-56
2023/05/25 00:31:25;;;;;;;;;;;14.20;90.20;;;;;;5059537;28;19908;-57
2023/05/25 00:33:50;;;;;;;;;;;14.10;90.30;;;;;;5059782;28;20004;-56
2023/05/25 00:36:16;;;;;;;;;;;14.10;85.20;;;;;;5059613;28;20004;-56
2023/05/25 00:38:41;;;;;;;;;;;14.10;83.10;;;;;;5059973;28;20252;-57
2023/05/25 00:41:07;;;;;;;;;;;14.10;77.70;;;;;;5059572;28;20261;-56
2023/05/25 00:43:33;;;;;;;;;;;14.10;87.40;;;;;;5059473;28;19913;-54
2023/05/25 00:45:59;;;;;;;;;;;14.00;93.70;;;;;;5060006;28;19908;-56
2023/05/25 00:48:25;;;;;;;;;;;14.00;81.70;;;;;;5059387;28;19916;-57
2023/05/25 00:50:53;;;;;;;;;;;14.00;94.00;;;;;;5059312;28;19916;-56
2023/05/25 00:53:18;;;;;;;;;;;14.00;94.00;;;;;;5059268;28;19919;-57
2023/05/25 00:55:56;;;;;;;;;;;14.00;87.40;;;;;;5059051;28;19909;-57
2023/05/25 00:58:23;;;;;;;;;;;13.90;87.30;;;;;;5059411;28;19959;-57
2023/05/25 01:00:49;;;;;;;;;;;13.90;81.90;;;;;;5058984;28;20012;-55
2023/05/25 01:03:20;;;;;;;;;;;13.90;78.40;;;;;;5059292;28;20465;-57
2023/05/25 01:05:47;;;;;;;;;;;13.80;82.70;;;;;;5059473;28;19915;-56
2023/05/25 01:08:13;;;;;;;;;;;13.80;93.10;;;;;;5059250;28;19908;-55
2023/05/25 01:10:41;;;;;;;;;;;13.80;84.40;;;;;;5059509;28;19913;-55
2023/05/25 01:13:08;;;;;;;;;;;13.80;90.40;;;;;;5058886;28;19921;-56
2023/05/25 01:15:34;;;;;;;;;;;13.80;85.20;;;;;;5041076;28;19908;-57
2023/05/25 01:18:00;;;;;;;;;;;13.70;84.00;;;;;;5058039;28;19943;-59
2023/05/25 01:20:29;;;;;;;;;;;13.70;92.70;;;;;;5058707;28;20322;-60
2023/05/25 01:22:57;;;;;;;;;;;13.70;89.30;;;;;;5058704;28;19913;-59
2023/05/25 01:25:33;;;;;;;;;;;13.70;89.80;;;;;;5058822;28;20295;-59
2023/05/25 01:28:18;;;;;;;;;;;13.70;94.80;;;;;;5058851;28;19909;-60
2023/05/25 01:30:46;;;;;;;;;;;13.60;86.90;;;;;;5057978;28;20363;-59
2023/05/25 01:33:12;;;;;;;;;;;13.60;96.30;;;;;;5058337;28;19915;-59
2023/05/25 01:35:39;;;;;;;;;;;13.60;90.10;;;;;;5058524;28;19909;-59
2023/05/25 01:38:04;;;;;;;;;;;13.50;93.10;;;;;;5058995;28;19999;-59
2023/05/25 01:40:30;;;;;;;;;;;13.60;90.00;;;;;;5058792;28;19936;-59
2023/05/25 01:42:55;;;;;;;;;;;13.60;92.40;;;;;;5058636;28;19916;-60
2023/05/25 01:45:21;;;;;;;;;;;13.50;92.40;;;;;;5058197;28;19917;-59
2023/05/25 01:47:47;;;;;;;;;;;13.50;91.90;;;;;;5058318;28;19974;-59
2023/05/25 01:50:33;;;;;;;;;;;13.50;97.70;;;;;;5058270;28;19916;-59
2023/05/25 01:53:01;;;;;;;;;;;13.50;91.70;;;;;;5058183;28;19909;-59
2023/05/25 01:55:28;;;;;;;;;;;13.40;93.40;;;;;;5057999;28;20386;-60
2023/05/25 01:57:56;;;;;;;;;;;13.40;90.30;;;;;;5058423;28;19908;-59
2023/05/25 02:00:24;;;;;;;;;;;13.40;90.50;;;;;;5058313;28;20390;-59
2023/05/25 02:02:51;;;;;;;;;;;13.30;92.60;;;;;;5057924;28;19956;-59
2023/05/25 02:05:18;;;;;;;;;;;13.30;92.50;;;;;;5058227;28;20347;-60
2023/05/25 02:07:44;;;;;;;;;;;13.30;92.00;;;;;;5057928;28;19909;-59
2023/05/25 02:10:10;;;;;;;;;;;13.30;95.60;;;;;;5057888;28;19924;-59
2023/05/25 02:12:35;;;;;;;;;;;13.30;95.00;;;;;;5057693;28;20386;-60
2023/05/25 02:15:01;;;;;;;;;;;13.30;95.80;;;;;;5058359;28;19909;-59
2023/05/25 02:17:27;;;;;;;;;;;13.30;96.20;;;;;;5058043;28;19909;-60
2023/05/25 02:19:53;;;;;;;;;;;13.30;95.20;;;;;;5057438;28;20394;-60
2023/05/25 02:22:21;;;;;;;;;;;13.30;91.90;;;;;;5057731;28;19913;-60
2023/05/25 02:24:47;;;;;;;;;;;13.30;93.70;;;;;;5057652;28;20011;-59
2023/05/25 02:27:13;;;;;;;;;;;13.30;97.80;;;;;;5057843;28;19952;-59
2023/05/25 02:29:38;;;;;;;;;;;13.30;94.90;;;;;;5057599;28;20383;-59
2023/05/25 02:32:04;;;;;;;;;;;13.20;96.30;;;;;;5057801;28;19908;-60
2023/05/25 02:34:30;;;;;;;;;;;13.30;95.20;;;;;;5057543;28;19909;-59
2023/05/25 02:36:56;;;;;;;;;;;13.20;95.40;;;;;;5057731;28;19916;-59
2023/05/25 02:39:21;;;;;;;;;;;13.20;97.10;;;;;;5057620;28;19909;-60
2023/05/25 02:41:47;;;;;;;;;;;13.20;93.10;;;;;;5057835;28;19995;-59
2023/05/25 02:44:13;;;;;;;;;;;13.20;95.20;;;;;;5056291;28;20007;-59
2023/05/25 02:46:38;;;;;;;;;;;13.20;93.00;;;;;;5057694;28;19966;-60
2023/05/25 02:49:04;;;;;;;;;;;13.20;94.60;;;;;;5057441;28;20635;-59
2023/05/25 02:51:31;;;;;;;;;;;13.20;96.10;;;;;;5057645;28;19908;-59
2023/05/25 02:53:56;;;;;;;;;;;13.20;92.10;;;;;;5057810;28;19909;-59
2023/05/25 02:56:22;;;;;;;;;;;13.10;94.30;;;;;;5057370;28;19963;-60
2023/05/25 02:58:48;;;;;;;;;;;13.10;93.90;;;;;;5057859;28;20055;-59
2023/05/25 03:01:17;;;;;;;;;;;13.20;96.40;;;;;;5057369;28;19959;-60
2023/05/25 03:03:44;;;;;;;;;;;13.10;97.90;;;;;;5057486;28;20390;-59
2023/05/25 03:06:11;;;;;;;;;;;13.10;99.90;;;;;;5057557;28;19909;-59
2023/05/25 03:08:37;;;;;;;;;;;13.10;94.20;;;;;;5057368;28;19915;-60
2023/05/25 03:11:03;;;;;;;;;;;13.10;94.70;;;;;;5057440;28;19908;-59
2023/05/25 03:13:29;;;;;;;;;;;13.10;99.30;;;;;;5057252;28;20372;-60
2023/05/25 03:15:54;;;;;;;;;;;13.10;98.80;;;;;;5057207;28;19908;-60
2023/05/25 03:18:20;;;;;;;;;;;13.10;97.10;;;;;;5057539;28;19995;-59
2023/05/25 03:20:46;;;;;;;;;;;13.10;96.90;;;;;;5057195;28;19909;-58
2023/05/25 03:23:12;;;;;;;;;;;13.10;95.40;;;;;;5057153;28;19913;-60
2023/05/25 03:25:37;;;;;;;;;;;13.20;97.10;;;;;;5057111;28;19932;-60
2023/05/25 03:28:03;;;;;;;;;;;13.20;94.60;;;;;;5056949;28;19916;-60
2023/05/25 03:30:30;;;;;;;;;;;13.10;93.80;;;;;;5057413;28;19909;-59
2023/05/25 03:32:56;;;;;;;;;;;13.10;99.80;;;;;;5057075;28;19920;-59
2023/05/25 03:35:21;;;;;;;;;;;13.10;97.40;;;;;;5057250;28;19928;-59
2023/05/25 03:37:47;;;;;;;;;;;13.10;99.00;;;;;;5057087;28;19986;-59
2023/05/25 03:40:13;;;;;;;;;;;13.00;94.60;;;;;;5057115;28;19976;-60
2023/05/25 03:42:38;;;;;;;;;;;13.00;97.80;;;;;;5059412;28;20015;-59
2023/05/25 03:45:05;;;;;;;;;;;13.00;99.90;;;;;;5060527;28;19913;-59
2023/05/25 03:47:30;;;;;;;;;;;13.00;97.80;;;;;;5060471;28;19943;-59
2023/05/25 03:49:56;;;;;;;;;;;13.00;97.80;;;;;;5060520;28;20347;-59
2023/05/25 03:52:22;;;;;;;;;;;13.00;97.40;;;;;;5060811;28;19963;-60
2023/05/25 03:54:48;;;;;;;;;;;13.00;98.30;;;;;;5060320;28;19909;-59
2023/05/25 03:57:13;;;;;;;;;;;13.00;99.90;;;;;;5060586;28;19909;-59
2023/05/25 03:59:39;;;;;;;;;;;13.00;99.60;;;;;;5060314;28;19909;-60
2023/05/25 04:02:04;;;;;;;;;;;13.10;99.50;;;;;;5060507;28;19908;-59
2023/05/25 04:04:30;;;;;;;;;;;13.00;97.30;;;;;;5060001;28;20371;-60
2023/05/25 04:06:56;;;;;;;;;;;13.10;99.90;;;;;;5060217;28;19963;-60
2023/05/25 04:09:21;;;;;;;;;;;13.00;98.70;;;;;;5060634;28;19962;-60
2023/05/25 04:11:47;;;;;;;;;;;13.00;98.10;;;;;;5060322;28;19909;-60
2023/05/25 04:14:13;;;;;;;;;;;13.00;98.60;;;;;;5059833;28;19921;-60
2023/05/25 04:16:41;;;;;;;;;;;13.00;98.70;;;;;;5060201;28;19912;-60
2023/05/25 04:19:07;;;;;;;;;;;13.00;99.90;;;;;;5060555;28;19909;-59
2023/05/25 04:21:32;;;;;;;;;;;13.00;99.90;;;;;;5059917;28;20334;-59
2023/05/25 04:23:58;;;;;;;;;;;13.00;99.90;;;;;;5059564;28;19917;-60
2023/05/25 04:26:27;;;;;;;;;;;13.00;97.90;;;;;;5059817;28;19948;-59
2023/05/25 04:28:53;;;;;;;;;;;13.00;99.40;;;;;;5059902;28;19935;-59
2023/05/25 04:31:19;;;;;;;;;;;13.00;98.20;;;;;;5059881;28;19913;-59
2023/05/25 04:33:45;;;;;;;;;;;12.90;99.90;;;;;;5059647;28;20264;-60
2023/05/25 04:36:10;;;;;;;;;;;12.90;98.70;;;;;;5060109;28;19932;-60
2023/05/25 04:38:36;;;;;;;;;;;12.90;99.90;;;;;;5059576;28;19909;-59
2023/05/25 04:41:02;;;;;;;;;;;12.90;99.90;;;;;;5059882;28;19909;-59
2023/05/25 04:43:31;;;;;;;;;;;12.90;98.00;;;;;;5059302;28;19921;-59
2023/05/25 04:45:58;;;;;;;;;;;12.90;99.90;;;;;;5059484;28;19915;-60
2023/05/25 04:48:24;;;;;;;;;;;12.90;98.40;;;;;;5059363;28;20414;-60
2023/05/25 04:50:51;;;;;;;;;;;12.90;99.90;;;;;;5059378;28;19909;-59
2023/05/25 04:53:17;;;;;;;;;;;12.90;99.10;;;;;;5058230;28;19916;-59
2023/05/25 04:55:43;;;;;;;;;;;12.90;99.40;;;;;;5059198;28;19913;-59
2023/05/25 04:58:12;;;;;;;;;;;12.90;99.50;;;;;;5059561;28;19913;-60
2023/05/25 05:00:38;;;;;;;;;;;12.90;99.20;;;;;;5059388;28;19963;-59
2023/05/25 05:03:05;;;;;;;;;;;12.90;98.70;;;;;;5059218;28;19916;-60
2023/05/25 05:05:31;;;;;;;;;;;12.90;99.90;;;;;;5059176;28;19909;-59
2023/05/25 05:07:56;;;;;;;;;;;12.90;98.00;;;;;;5059134;28;19962;-59
2023/05/25 05:10:22;;;;;;;;;;;12.90;99.00;;;;;;5059019;28;20280;-59
2023/05/25 05:12:48;;;;;;;;;;;12.90;98.20;;;;;;5058724;28;20431;-60
2023/05/25 05:15:13;;;;;;;;;;;12.90;97.90;;;;;;5059003;28;19912;-58
2023/05/25 05:17:39;;;;;;;;;;;12.90;99.90;;;;;;5059169;28;20435;-59
2023/05/25 05:20:07;;;;;;;;;;;13.00;99.90;;;;;;5058937;28;19917;-59
2023/05/25 05:22:33;;;;;;;;;;;13.00;99.20;;;;;;5058884;28;19964;-58
2023/05/25 05:24:59;;;;;;;;;;;13.00;99.90;;;;;;5058506;28;20424;-59
2023/05/25 05:27:27;;;;;;;;;;;13.00;99.90;;;;;;5058516;28;19909;-59
2023/05/25 05:29:53;;;;;;;;;;;13.10;99.90;;;;;;5058934;28;20280;-59
2023/05/25 05:32:19;;;;;;;;;;;13.10;99.40;;;;;;5058796;28;19909;-59
2023/05/25 05:34:45;;;;;;;;;;;13.20;99.90;;;;;;5058861;28;19916;-60
2023/05/25 05:37:10;;;;;;;;;;;13.20;99.70;;;;;;5058446;28;19955;-59
2023/05/25 05:39:36;;;;;;;;;;;13.30;99.90;;;;;;5058827;28;20055;-59
2023/05/25 05:42:02;;;;;;;;;;;13.40;99.90;;;;;;5058038;28;19909;-60
2023/05/25 05:44:27;;;;;;;;;;;13.50;99.90;;;;;;5058619;28;19913;-60
2023/05/25 05:46:58;;;;;;;;;;;13.60;99.90;;;;;;5058365;28;19908;-60
2023/05/25 05:49:25;;;;;;;;;;;13.60;99.90;;;;;;5057941;28;19909;-60
2023/05/25 05:51:51;;;;;;;;;;;13.70;99.90;;;;;;5058445;28;19916;-60
2023/05/25 05:54:16;;;;;;;;;;;13.80;99.90;;;;;;5058565;28;20391;-60
2023/05/25 05:56:42;;;;;;;;;;;13.90;99.90;;;;;;5058377;28;19916;-60
2023/05/25 05:59:10;;;;;;;;;;;13.90;99.90;;;;;;5058179;28;19931;-60
2023/05/25 06:01:36;;;;;;;;;;;14.00;99.90;;;;;;5058005;28;19961;-60
2023/05/25 06:04:01;;;;;;;;;;;14.10;99.90;;;;;;5057881;28;19913;-60
2023/05/25 06:06:27;;;;;;;;;;;14.10;99.90;;;;;;5058202;28;19913;-60
2023/05/25 06:08:53;;;;;;;;;;;14.10;99.90;;;;;;5057713;28;19944;-60
2023/05/25 06:11:18;;;;;;;;;;;14.10;99.90;;;;;;5058007;28;19944;-60
2023/05/25 06:13:44;;;;;;;;;;;14.10;99.90;;;;;;5057514;28;19986;-60
2023/05/25 06:16:11;;;;;;;;;;;14.10;99.90;;;;;;5058108;28;19909;-59
2023/05/25 06:18:37;;;;;;;;;;;14.10;99.90;;;;;;5057808;28;19998;-60
2023/05/25 06:21:02;;;;;;;;;;;14.20;99.90;;;;;;5057944;28;19909;-59
2023/05/25 06:23:28;;;;;;;;;;;14.20;99.90;;;;;;5058050;28;20019;-59
2023/05/25 06:25:54;;;;;;;;;;;14.30;99.90;;;;;;5058140;28;19935;-59
2023/05/25 06:28:19;;;;;;;;;;;14.40;99.90;;;;;;5057730;28;19932;-59
2023/05/25 06:30:45;;;;;;;;;;;14.50;99.90;;;;;;5057739;28;20414;-60
2023/05/25 06:33:11;;;;;;;;;;;14.50;99.90;;;;;;5057808;28;19909;-60
2023/05/25 06:35:36;;;;;;;;;;;14.50;99.90;;;;;;5039569;28;19948;-60
2023/05/25 06:38:02;;;;;;;;;;;14.60;99.90;;;;;;5057783;28;19916;-60
2023/05/25 06:40:28;;;;;;;;;;;14.70;99.90;;;;;;5057615;28;20338;-60
2023/05/25 06:42:53;;;;;;;;;;;14.70;99.90;;;;;;5057554;28;19935;-60
2023/05/25 06:45:20;;;;;;;;;;;14.70;99.90;;;;;;5057604;28;19913;-59
2023/05/25 06:47:45;;;;;;;;;;;14.80;99.90;;;;;;5057488;28;19913;-60
2023/05/25 06:50:12;;;;;;;;;;;14.80;99.90;;;;;;5057678;28;19952;-59
2023/05/25 06:52:38;;;;;;;;;;;14.90;99.90;;;;;;5057266;28;19954;-59
2023/05/25 06:55:04;;;;;;;;;;;14.90;99.90;;;;;;5057523;28;19943;-59
2023/05/25 06:57:29;;;;;;;;;;;15.00;99.90;;;;;;5057268;28;19909;-58
2023/05/25 06:59:55;;;;;;;;;;;15.10;99.90;;;;;;5057376;28;19909;-58
2023/05/25 07:02:21;;;;;;;;;;;15.20;99.90;;;;;;5057375;28;19908;-59
2023/05/25 07:04:46;;;;;;;;;;;15.30;99.90;;;;;;5057609;28;20383;-59
2023/05/25 07:07:12;;;;;;;;;;;15.30;99.90;;;;;;5057448;28;19991;-59
2023/05/25 07:09:38;;;;;;;;;;;15.40;99.90;;;;;;5057017;28;19913;-59
2023/05/25 07:12:06;;;;;;;;;;;15.50;99.90;;;;;;5056916;28;19915;-59
2023/05/25 07:14:34;;;;;;;;;;;15.50;99.90;;;;;;5057171;28;19913;-59
2023/05/25 07:17:00;;;;;;;;;;;15.60;99.90;;;;;;5059125;28;20426;-58
2023/05/25 07:19:25;;;;;;;;;;;15.70;99.90;;;;;;5061291;28;19975;-59
2023/05/25 07:21:51;;;;;;;;;;;15.90;99.90;;;;;;5061232;28;19958;-59
2023/05/25 07:24:17;;;;;;;;;;;15.90;99.90;;;;;;5061435;28;19992;-59
2023/05/25 07:26:44;;;;;;;;;;;16.00;99.90;;;;;;5060932;28;19970;-60
2023/05/25 07:29:11;;;;;;;;;;;16.10;99.90;;;;;;5060749;28;19909;-60
2023/05/25 07:31:36;;;;;;;;;;;16.20;99.90;;;;;;5060896;28;20004;-60
2023/05/25 07:34:02;;;;;;;;;;;16.30;99.90;;;;;;5061333;28;19963;-59
2023/05/25 07:36:28;;;;;;;;;;;16.30;99.90;;;;;;5061046;28;19909;-59
2023/05/25 07:38:53;;;;;;;;;;;16.40;99.90;;;;;;5061222;28;19912;-60
2023/05/25 07:41:19;;;;;;;;;;;16.50;99.90;;;;;;5060755;28;19959;-60
2023/05/25 07:43:44;;;;;;;;;;;16.60;99.90;;;;;;5060708;28;19917;-60
2023/05/25 07:46:10;;;;;;;;;;;16.70;99.90;;;;;;5060866;28;19909;-60
2023/05/25 07:48:36;;;;;;;;;;;16.80;99.90;;;;;;5060401;28;19916;-60
2023/05/25 07:51:01;;;;;;;;;;;16.90;99.90;;;;;;5060954;28;19913;-60
2023/05/25 07:53:27;;;;;;;;;;;17.00;99.90;;;;;;5060596;28;19909;-60
2023/05/25 07:55:53;;;;;;;;;;;17.00;99.90;;;;;;5060657;28;19909;-60
2023/05/25 07:58:18;;;;;;;;;;;17.10;99.90;;;;;;5060628;28;19983;-60
2023/05/25 08:00:44;;;;;;;;;;;17.20;99.90;;;;;;5060732;28;19908;-60
2023/05/25 08:03:10;;;;;;;;;;;17.30;99.90;;;;;;5060413;28;19909;-60
2023/05/25 08:05:35;;;;;;;;;;;17.30;99.50;;;;;;5060293;28;19980;-60
2023/05/25 08:08:01;;;;;;;;;;;17.40;99.90;;;;;;5060135;28;19958;-60
2023/05/25 08:10:30;;;;;;;;;;;17.50;99.90;;;;;;5060543;28;19916;-60
2023/05/25 08:12:56;;;;;;;;;;;17.60;99.90;;;;;;5060067;28;20372;-60
2023/05/25 08:15:22;;;;;;;;;;;17.60;99.20;;;;;;5060398;28;19909;-60
2023/05/25 08:17:49;;;;;;;;;;;17.70;99.20;;;;;;5060284;28;20330;-60
2023/05/25 08:20:15;;;;;;;;;;;17.70;97.80;;;;;;5060105;28;19945;-60
2023/05/25 08:22:42;;;;;;;;;;;17.70;98.20;;;;;;5059726;28;20343;-60
2023/05/25 08:25:08;;;;;;;;;;;17.80;96.90;;;;;;5059989;28;19913;-60
2023/05/25 08:27:33;;;;;;;;;;;17.90;99.60;;;;;;5060094;28;19909;-60
2023/05/25 08:29:59;;;;;;;;;;;18.00;97.50;;;;;;5059758;28;19962;-60
2023/05/25 08:32:25;;;;;;;;;;;18.00;94.10;;;;;;5059780;28;19916;-60
2023/05/25 08:34:50;;;;;;;;;;;18.00;95.60;;;;;;5060114;28;19909;-60
2023/05/25 08:37:16;;;;;;;;;;;18.00;95.70;;;;;;5059696;28;19995;-60
2023/05/25 08:39:42;;;;;;;;;;;18.10;94.00;;;;;;5059952;28;19909;-60
2023/05/25 08:42:08;;;;;;;;;;;18.10;95.80;;;;;;5059545;28;19909;-60
2023/05/25 08:44:36;;;;;;;;;;;18.20;91.90;;;;;;5059860;28;20386;-60
2023/05/25 08:47:04;;;;;;;;;;;18.10;94.20;;;;;;5059410;28;20415;-60
2023/05/25 08:49:31;;;;;;;;;;;18.20;94.60;;;;;;5059272;28;19963;-60
2023/05/25 08:51:57;;;;;;;;;;;18.30;95.40;;;;;;5059821;28;20375;-60
2023/05/25 08:54:33;;;;;;;;;;;18.40;96.20;;;;;;5059317;28;19916;-60
2023/05/25 08:57:12;;;;;;;;;;;18.50;95.20;;;;;;5059494;28;19920;-60
2023/05/25 08:59:50;;;;;;;;;;;18.60;91.60;;;;;;5059193;28;20419;-59
2023/05/25 09:02:28;;;;;;;;;;;18.70;94.90;;;;;;5059345;28;20027;-60
2023/05/25 09:04:54;;;;;;;;;;;18.80;96.30;;;;;;5058730;28;19921;-60
2023/05/25 09:07:20;;;;;;;;;;;18.90;95.10;;;;;;5057060;28;19913;-60
2023/05/25 09:09:46;;;;;;;;;;;19.00;95.00;;;;;;5059403;28;19915;-60
2023/05/25 09:12:13;;;;;;;;;;;19.10;92.90;;;;;;5059209;28;19909;-60
2023/05/25 09:14:44;;;;;;;;;;;19.10;93.40;;;;;;5059127;28;19917;-60
2023/05/25 09:17:11;;;;;;;;;;;19.10;91.40;;;;;;5058959;28;19935;-60
2023/05/25 09:19:36;;;;;;;;;;;19.10;92.80;;;;;;5058785;28;19924;-60
2023/05/25 09:22:02;;;;;;;;;;;19.20;92.60;;;;;;5059025;28;20348;-60
2023/05/25 09:24:28;;;;;;;;;;;19.30;91.00;;;;;;5057403;28;20000;-60
2023/05/25 09:26:54;;;;;;;;;;;19.50;92.00;;;;;;5055908;28;19935;-60
2023/05/25 09:29:19;;;;;;;;;;;19.70;87.30;;;;;;5058748;28;19916;-60
2023/05/25 09:31:46;;;;;;;;;;;19.60;85.90;;;;;;5058264;28;19913;-60
2023/05/25 09:34:12;;;;;;;;;;;19.50;81.30;;;;;;5058293;28;19992;-60
2023/05/25 09:36:40;;;;;;;;;;;19.50;84.10;;;;;;5058709;28;19909;-60
2023/05/25 09:39:09;;;;;;;;;;;19.60;89.10;;;;;;5057984;28;19931;-60
2023/05/25 09:41:35;;;;;;;;;;;19.80;87.80;;;;;;5058678;28;19909;-60
2023/05/25 09:44:01;;;;;;;;;;;19.90;86.40;;;;;;5058254;28;19983;-60
2023/05/25 09:46:27;;;;;;;;;;;20.00;79.60;;;;;;5057584;28;20446;-60
2023/05/25 09:48:53;;;;;;;;;;;20.20;89.60;;;;;;5057250;28;20519;-60
2023/05/25 09:51:20;;;;;;;;;;;20.40;86.70;;;;;;5058365;28;19913;-60
2023/05/25 09:53:46;;;;;;;;;;;20.60;90.20;;;;;;5058048;28;19931;-60
2023/05/25 09:56:11;;;;;;;;;;;20.80;86.50;;;;;;5058484;28;19908;-60
2023/05/25 09:58:37;;;;;;;;;;;21.00;83.10;;;;;;5058279;28;19916;-60
2023/05/25 10:01:03;;;;;;;;;;;21.20;79.10;;;;;;5058245;28;19913;-60
2023/05/25 10:03:29;;;;;;;;;;;21.40;80.10;;;;;;5057859;28;19925;-60
2023/05/25 10:05:55;;;;;;;;;;;21.90;88.90;;;;;;5039908;28;19912;-60
2023/05/25 10:08:22;;;;;;;;;;;22.50;92.30;;;;;;5057796;28;19960;-60
2023/05/25 10:10:48;;;;;;;;;;;23.50;90.90;;;;;;5057678;28;19908;-61
2023/05/25 10:13:15;;;;;;;;;;;23.70;68.70;;;;;;5057657;28;19921;-61
2023/05/25 10:15:43;;;;;;;;;;;24.00;71.60;;;;;;5057857;28;19915;-61
2023/05/25 10:18:09;;;;;;;;;;;24.80;68.10;;;;;;5057979;28;19908;-61
2023/05/25 10:20:35;;;;;;;;;;;25.50;68.10;;;;;;5057953;28;19916;-60
2023/05/25 10:23:08;;;;;;;;;;;26.00;83.60;;;;;;5057536;28;19913;-61
2023/05/25 10:25:38;;;;;;;;;;;26.80;70.80;;;;;;5058121;28;19916;-61
2023/05/25 10:28:16;;;;;;;;;;;26.60;62.20;;;;;;5057719;28;19909;-61
2023/05/25 10:30:41;;;;;;;;;;;27.50;60.70;;;;;;5057619;28;19916;-61
2023/05/25 10:33:09;;;;;;;;;;;27.40;64.40;;;;;;5057781;28;20367;-61
2023/05/25 10:35:36;;;;;;;;;;;26.70;54.30;;;;;;5057626;28;19916;-61
2023/05/25 10:38:03;;;;;;;;;;;27.90;64.80;;;;;;5057792;28;19909;-61
2023/05/25 10:40:28;;;;;;;;;;;28.00;52.90;;;;;;5057780;28;20357;-61
2023/05/25 10:42:54;;;;;;;;;;;28.80;53.70;;;;;;5057749;28;19912;-61
2023/05/25 10:45:21;;;;;;;;;;;29.00;47.60;;;;;;5057583;28;19913;-61
2023/05/25 10:47:47;;;;;;;;;;;29.20;50.10;;;;;;5057565;28;19909;-61
2023/05/25 10:50:21;;;;;;;;;;;28.80;43.60;;;;;;5056196;28;19931;-61
2023/05/25 10:52:56;;;;;;;;;;;29.50;49.60;;;;;;5060630;28;19915;-61
2023/05/25 10:55:26;;;;;;;;;;;29.50;46.30;;;;;;5061393;28;19916;-61
2023/05/25 10:58:09;;;;;;;;;;;29.80;46.90;;;;;;5061263;28;19916;-61
2023/05/25 11:00:34;;;;;;;;;;;29.70;47.40;;;;;;5061652;28;19909;-61
2023/05/25 11:03:00;;;;;;;;;;;30.30;44.80;;;;;;5061534;28;20416;-61
2023/05/25 11:05:26;;;;;;;;;;;30.20;44.80;;;;;;5061537;28;19959;-61
2023/05/25 11:07:52;;;;;;;;;;;29.90;42.20;;;;;;5061505;28;19908;-61
2023/05/25 11:10:38;;;;;;;;;;;30.30;43.80;;;;;;5061422;28;19940;-60
2023/05/25 11:13:23;;;;;;;;;;;31.50;48.60;;;;;;5060997;28;19921;-61
2023/05/25 11:16:08;;;;;;;;;;;31.20;40.70;;;;;;5061339;28;20326;-61
2023/05/25 11:18:37;;;;;;;;;;;30.40;40.90;;;;;;5061096;28;19916;-61
2023/05/25 11:21:11;;;;;;;;;;;30.70;40.90;;;;;;5061336;28;19908;-61
2023/05/25 11:24:06;;;;;;;;;;;30.10;36.50;;;;;;5060968;28;19919;-61
2023/05/25 11:26:33;;;;;;;;;;;30.80;40.50;;;;;;5051746;28;19963;-61
2023/05/25 11:29:00;;;;;;;;;;;31.70;38.00;;;;;;5061110;28;19917;-61
2023/05/25 11:31:32;;;;;;;;;;;31.50;38.80;;;;;;5060811;28;20391;-60
2023/05/25 11:33:59;;;;;;;;;;;31.90;39.50;;;;;;5060943;28;19951;-61
2023/05/25 11:36:25;;;;;;;;;;;32.30;39.60;;;;;;5060933;28;19917;-61
2023/05/25 11:38:52;;;;;;;;;;;32.60;39.10;;;;;;5061057;28;19908;-61
2023/05/25 11:41:22;;;;;;;;;;;31.50;33.70;;;;;;5060617;28;19970;-61
2023/05/25 11:43:48;;;;;;;;;;;31.80;36.80;;;;;;5060459;28;20379;-61
2023/05/25 11:46:14;;;;;;;;;;;32.00;38.60;;;;;;5060607;28;19937;-61
2023/05/25 11:48:53;;;;;;;;;;;31.80;36.40;;;;;;5060440;28;20431;-61
2023/05/25 11:51:29;;;;;;;;;;;30.50;34.40;;;;;;5060774;28;19909;-61
2023/05/25 11:53:55;;;;;;;;;;;30.60;36.00;;;;;;5060561;28;20316;-61
2023/05/25 11:56:23;;;;;;;;;;;30.20;35.90;;;;;;5060495;28;19940;-61
2023/05/25 11:58:49;;;;;;;;;;;30.80;36.30;;;;;;5060287;28;20313;-61
2023/05/25 12:01:15;;;;;;;;;;;30.70;33.50;;;;;;5060246;28;19908;-61
2023/05/25 12:03:41;;;;;;;;;;;30.10;33.40;;;;;;5059614;28;19950;-61
2023/05/25 12:06:07;;;;;;;;;;;30.20;33.70;;;;;;5060653;28;19996;-61
2023/05/25 12:08:33;;;;;;;;;;;30.30;34.10;;;;;;5060338;28;19963;-61
2023/05/25 12:10:59;;;;;;;;;;;29.80;33.70;;;;;;5060273;28;19913;-61
2023/05/25 12:13:25;;;;;;;;;;;30.40;34.60;;;;;;5059811;28;19931;-61
2023/05/25 12:15:51;;;;;;;;;;;31.00;34.60;;;;;;5059980;28;19953;-61
2023/05/25 12:18:17;;;;;;;;;;;30.70;32.40;;;;;;5041925;28;19918;-61
2023/05/25 12:20:43;;;;;;;;;;;30.70;34.00;;;;;;5059997;28;19916;-61
2023/05/25 12:23:09;;;;;;;;;;;30.70;32.10;;;;;;5060037;28;19909;-61
2023/05/25 12:25:34;;;;;;;;;;;30.70;34.80;;;;;;5059858;28;20395;-60
2023/05/25 12:28:10;;;;;;;;;;;31.20;34.90;;;;;;5059803;28;20398;-60
2023/05/25 12:30:36;;;;;;;;;;;31.80;34.90;;;;;;5060058;28;19916;-61
2023/05/25 12:33:02;;;;;;;;;;;31.70;32.00;;;;;;5059869;28;19916;-61
2023/05/25 12:35:28;;;;;;;;;;;31.50;33.40;;;;;;5059944;28;19913;-61
2023/05/25 12:38:10;;;;;;;;;;;30.80;33.90;;;;;;5059580;28;19908;-60
2023/05/25 12:40:36;;;;;;;;;;;30.70;33.60;;;;;;5059509;28;19943;-61
2023/05/25 12:43:02;;;;;;;;;;;30.90;35.60;;;;;;5059551;28;20287;-60
2023/05/25 12:45:27;;;;;;;;;;;30.90;34.20;;;;;;5059468;28;19920;-61
2023/05/25 12:47:53;;;;;;;;;;;30.80;32.00;;;;;;5059673;28;20356;-61
2023/05/25 12:50:19;;;;;;;;;;;30.40;33.20;;;;;;5059617;28;19954;-61
2023/05/25 12:52:45;;;;;;;;;;;30.50;33.40;;;;;;5059335;28;19931;-61
2023/05/25 12:55:40;;;;;;;;;;;30.00;33.90;;;;;;5058996;28;20390;-61
2023/05/25 12:58:06;;;;;;;;;;;30.20;34.50;;;;;;5050119;28;19910;-61
2023/05/25 13:00:33;;;;;;;;;;;30.70;34.90;;;;;;5059636;28;20434;-61
2023/05/25 13:02:59;;;;;;;;;;;30.30;34.50;;;;;;5059527;28;19913;-61
2023/05/25 13:05:26;;;;;;;;;;;30.30;33.40;;;;;;5059300;28;19913;-61
2023/05/25 13:07:53;;;;;;;;;;;30.40;34.40;;;;;;5058965;28;19928;-61
2023/05/25 13:10:19;;;;;;;;;;;30.00;34.10;;;;;;5058810;28;19915;-61
2023/05/25 13:12:45;;;;;;;;;;;29.50;34.00;;;;;;5058704;28;20287;-61
2023/05/25 13:15:11;;;;;;;;;;;28.30;34.20;;;;;;5058229;28;19916;-61
2023/05/25 13:17:37;;;;;;;;;;;27.80;34.30;;;;;;5059208;28;20382;-61
2023/05/25 13:20:03;;;;;;;;;;;27.60;35.60;;;;;;5059354;28;20386;-61
2023/05/25 13:22:29;;;;;;;;;;;27.60;35.20;;;;;;5058438;28;19913;-61
2023/05/25 13:24:54;;;;;;;;;;;28.00;35.70;;;;;;5058861;28;20430;-61
2023/05/25 13:27:20;;;;;;;;;;;28.10;35.40;;;;;;5059039;28;19916;-61
2023/05/25 13:29:46;;;;;;;;;;;28.10;35.00;;;;;;5058655;28;19909;-61
2023/05/25 13:32:11;;;;;;;;;;;28.60;35.50;;;;;;5058718;28;19962;-61
2023/05/25 13:34:37;;;;;;;;;;;28.10;35.30;;;;;;5058779;28;20008;-61
2023/05/25 13:37:03;;;;;;;;;;;27.90;35.40;;;;;;5058993;28;20356;-61
2023/05/25 13:39:29;;;;;;;;;;;28.20;35.00;;;;;;5055548;28;19948;-61
2023/05/25 13:41:55;;;;;;;;;;;28.10;34.90;;;;;;5058185;28;20394;-61
2023/05/25 13:44:21;;;;;;;;;;;28.30;35.00;;;;;;5058154;28;19920;-60
2023/05/25 13:46:47;;;;;;;;;;;28.20;35.10;;;;;;5056852;28;19909;-61
2023/05/25 13:49:15;;;;;;;;;;;28.70;35.00;;;;;;5058330;28;20000;-60
2023/05/25 13:51:41;;;;;;;;;;;28.50;34.00;;;;;;5058269;28;19909;-61
2023/05/25 13:54:07;;;;;;;;;;;28.40;34.00;;;;;;5057089;28;19996;-60
2023/05/25 13:56:33;;;;;;;;;;;28.90;34.70;;;;;;5058075;28;19940;-60
2023/05/25 13:58:58;;;;;;;;;;;28.10;33.60;;;;;;5058162;28;20000;-60
2023/05/25 14:01:26;;;;;;;;;;;27.90;35.50;;;;;;5058532;28;19916;-60
2023/05/25 14:03:52;;;;;;;;;;;28.50;35.60;;;;;;5058213;28;19920;-60
2023/05/25 14:06:18;;;;;;;;;;;27.90;33.50;;;;;;5056239;28;20280;-60
2023/05/25 14:08:43;;;;;;;;;;;27.80;34.40;;;;;;5057073;28;19966;-60
2023/05/25 14:11:09;;;;;;;;;;;27.80;34.30;;;;;;5058096;28;19912;-60
2023/05/25 14:13:35;;;;;;;;;;;27.90;34.50;;;;;;5057978;28;20402;-60
2023/05/25 14:16:02;;;;;;;;;;;28.10;35.40;;;;;;5056018;28;19909;-60